Time,TemperatureF,DewpointF,PressureIn,WindDirection,WindDirectionDegrees,WindSpeedMPH,WindSpeedGustMPH,Humidity,HourlyPrecipIn,Conditions,Clouds,dailyrainin,SoftwareType,DateUTC
2013-07-12 00:01:00,81.1,76.9,29.89,WSW,238,0.0,3.0,87,0.00,,,0.25,VWS V14.00,2013-07-12 04:01:00,
2013-07-12 00:03:00,81.1,76.9,29.89,ENE,67,0.0,2.0,87,0.00,,,0.00,VWS V14.00,2013-07-12 04:03:00,
2013-07-12 00:04:00,81.1,76.9,29.89,ENE,59,0.0,2.0,87,0.00,,,0.00,VWS V14.00,2013-07-12 04:04:00,
2013-07-12 00:09:00,81.2,77.0,29.89,North,355,1.0,6.0,87,0.00,,,0.00,VWS V14.00,2013-07-12 04:09:00,
2013-07-12 00:15:00,81.2,77.0,29.89,SE,146,1.0,2.0,87,0.00,,,0.00,VWS V14.00,2013-07-12 04:15:00,
2013-07-12 00:20:00,81.2,77.0,29.89,South,190,1.0,6.0,87,0.00,,,0.00,VWS V14.00,2013-07-12 04:20:00,
2013-07-12 00:25:00,81.2,77.0,29.88,WSW,240,0.0,4.0,87,0.00,,,0.00,VWS V14.00,2013-07-12 04:25:00,
2013-07-12 00:30:00,81.3,77.1,29.88,SW,215,0.0,5.0,87,0.00,,,0.00,VWS V14.00,2013-07-12 04:30:00,
2013-07-12 00:35:00,81.3,77.1,29.88,South,189,0.0,4.0,87,0.00,,,0.00,VWS V14.00,2013-07-12 04:35:00,
2013-07-12 00:40:00,81.2,77.0,29.88,SSW,198,2.0,4.0,87,0.00,,,0.00,VWS V14.00,2013-07-12 04:40:00,
2013-07-12 00:46:00,80.9,77.4,29.89,West,264,2.0,9.0,89,0.02,,,0.02,VWS V14.00,2013-07-12 04:46:00,
2013-07-12 00:51:00,78.4,74.9,29.90,NE,51,2.0,15.0,89,0.22,,,0.22,VWS V14.00,2013-07-12 04:51:00,
2013-07-12 00:56:00,76.9,74.4,29.89,SE,144,1.0,4.0,92,0.28,,,0.28,VWS V14.00,2013-07-12 04:56:00,
2013-07-12 01:01:00,76.3,74.4,29.88,SSW,202,0.0,4.0,94,0.28,,,0.28,VWS V14.00,2013-07-12 05:01:00,
2013-07-12 01:06:00,75.9,74.1,29.88,SSW,202,1.0,1.0,94,0.28,,,0.28,VWS V14.00,2013-07-12 05:06:00,
2013-07-12 01:11:00,75.7,74.2,29.88,SSW,203,0.0,1.0,95,0.28,,,0.28,VWS V14.00,2013-07-12 05:11:00,
2013-07-12 01:16:00,75.8,74.6,29.88,SSW,203,0.0,1.0,96,0.28,,,0.28,VWS V14.00,2013-07-12 05:16:00,
2013-07-12 01:22:00,75.8,74.9,29.88,SSW,203,0.0,0.0,97,0.29,,,0.29,VWS V14.00,2013-07-12 05:22:00,
2013-07-12 01:27:00,75.9,75.0,29.87,SSW,203,0.0,0.0,97,0.29,,,0.29,VWS V14.00,2013-07-12 05:27:00,
2013-07-12 01:32:00,76.0,75.1,29.87,SSW,203,2.0,2.0,97,0.29,,,0.29,VWS V14.00,2013-07-12 05:32:00,
2013-07-12 01:37:00,76.2,75.3,29.87,SSW,203,0.0,2.0,97,0.29,,,0.29,VWS V14.00,2013-07-12 05:37:00,
2013-07-12 01:42:00,76.4,75.8,29.88,SSW,202,1.0,3.0,98,0.29,,,0.29,VWS V14.00,2013-07-12 05:42:00,
2013-07-12 01:47:00,76.3,75.4,29.88,WSW,252,0.0,4.0,97,0.32,,,0.32,VWS V14.00,2013-07-12 05:47:00,
2013-07-12 01:53:00,76.1,75.2,29.88,NW,318,1.0,3.0,97,0.17,,,0.41,VWS V14.00,2013-07-12 05:53:00,
2013-07-12 01:58:00,75.9,75.0,29.87,SSW,196,0.0,3.0,97,0.17,,,0.41,VWS V14.00,2013-07-12 05:58:00,
2013-07-12 02:03:00,75.9,75.0,29.87,SSW,196,0.0,0.0,97,0.13,,,0.41,VWS V14.00,2013-07-12 06:03:00,
2013-07-12 02:08:00,75.8,74.9,29.88,WNW,289,0.0,2.0,97,0.13,,,0.41,VWS V14.00,2013-07-12 06:08:00,
2013-07-12 02:13:00,75.8,74.9,29.88,WNW,289,0.0,1.0,97,0.13,,,0.41,VWS V14.00,2013-07-12 06:13:00,
2013-07-12 02:18:00,75.9,75.3,29.88,WNW,289,0.0,1.0,98,0.13,,,0.41,VWS V14.00,2013-07-12 06:18:00,
2013-07-12 02:24:00,75.9,75.3,29.87,WNW,288,1.0,2.0,98,0.12,,,0.41,VWS V14.00,2013-07-12 06:24:00,
2013-07-12 02:29:00,76.0,75.4,29.88,South,182,0.0,2.0,98,0.12,,,0.41,VWS V14.00,2013-07-12 06:29:00,
2013-07-12 02:34:00,76.0,75.4,29.88,South,182,0.0,1.0,98,0.12,,,0.41,VWS V14.00,2013-07-12 06:34:00,
2013-07-12 02:39:00,75.9,75.3,29.87,NNE,13,0.0,4.0,98,0.12,,,0.41,VWS V14.00,2013-07-12 06:39:00,
2013-07-12 02:44:00,75.9,75.3,29.87,NNE,24,0.0,1.0,98,0.12,,,0.41,VWS V14.00,2013-07-12 06:44:00,
2013-07-12 02:49:00,76.0,75.4,29.86,NNE,24,0.0,1.0,98,0.12,,,0.41,VWS V14.00,2013-07-12 06:49:00,
2013-07-12 02:55:00,76.1,75.5,29.86,NNE,24,0.0,0.0,98,0.01,,,0.41,VWS V14.00,2013-07-12 06:55:00,
2013-07-12 03:00:00,76.0,75.4,29.86,NNE,24,0.0,1.0,98,0.01,,,0.41,VWS V14.00,2013-07-12 07:00:00,
2013-07-12 03:05:00,76.1,75.5,29.86,NNE,24,0.0,1.0,98,0.01,,,0.41,VWS V14.00,2013-07-12 07:05:00,
2013-07-12 03:10:00,76.0,75.4,29.86,NNE,24,0.0,1.0,98,0.01,,,0.41,VWS V14.00,2013-07-12 07:10:00,
2013-07-12 03:15:00,76.1,75.5,29.86,NNE,24,0.0,0.0,98,0.00,,,0.41,VWS V14.00,2013-07-12 07:15:00,
2013-07-12 03:20:00,76.1,75.5,29.86,NNE,24,0.0,2.0,98,0.00,,,0.41,VWS V14.00,2013-07-12 07:20:00,
2013-07-12 03:26:00,76.1,75.5,29.87,WNW,300,1.0,3.0,98,0.00,,,0.41,VWS V14.00,2013-07-12 07:26:00,
2013-07-12 03:31:00,76.0,75.4,29.87,SW,222,1.0,5.0,98,0.03,,,0.44,VWS V14.00,2013-07-12 07:31:00,
2013-07-12 03:36:00,75.9,75.3,29.86,SW,236,1.0,4.0,98,0.08,,,0.49,VWS V14.00,2013-07-12 07:36:00,
2013-07-12 03:41:00,75.8,75.2,29.85,SW,236,0.0,0.0,98,0.09,,,0.50,VWS V14.00,2013-07-12 07:41:00,
2013-07-12 03:46:00,75.7,75.1,29.85,SW,236,0.0,1.0,98,0.09,,,0.50,VWS V14.00,2013-07-12 07:46:00,
2013-07-12 03:51:00,75.6,75.0,29.86,SW,236,0.0,0.0,98,0.09,,,0.50,VWS V14.00,2013-07-12 07:51:00,
2013-07-12 03:57:00,75.5,74.9,29.86,SW,236,0.0,0.0,98,0.09,,,0.50,VWS V14.00,2013-07-12 07:57:00,
2013-07-12 04:02:00,75.3,74.7,29.85,SW,236,0.0,0.0,98,0.09,,,0.50,VWS V14.00,2013-07-12 08:02:00,
2013-07-12 04:07:00,75.2,74.6,29.85,SW,236,0.0,2.0,98,0.09,,,0.50,VWS V14.00,2013-07-12 08:07:00,
2013-07-12 04:12:00,75.2,74.6,29.85,WSW,237,0.0,1.0,98,0.09,,,0.50,VWS V14.00,2013-07-12 08:12:00,
2013-07-12 04:17:00,75.2,74.6,29.85,WSW,237,0.0,1.0,98,0.09,,,0.50,VWS V14.00,2013-07-12 08:17:00,
2013-07-12 04:22:00,75.2,74.6,29.84,WSW,237,0.0,0.0,98,0.09,,,0.50,VWS V14.00,2013-07-12 08:22:00,
2013-07-12 04:28:00,75.2,74.6,29.84,WSW,237,0.0,0.0,98,0.09,,,0.50,VWS V14.00,2013-07-12 08:28:00,
2013-07-12 04:33:00,75.1,74.5,29.85,WSW,237,0.0,0.0,98,0.06,,,0.50,VWS V14.00,2013-07-12 08:33:00,
2013-07-12 04:38:00,75.1,74.5,29.85,WSW,237,0.0,2.0,98,0.06,,,0.50,VWS V14.00,2013-07-12 08:38:00,
2013-07-12 04:43:00,75.1,74.5,29.85,WSW,237,0.0,0.0,98,0.00,,,0.50,VWS V14.00,2013-07-12 08:43:00,
2013-07-12 04:48:00,75.2,74.6,29.85,South,182,0.0,1.0,98,0.00,,,0.50,VWS V14.00,2013-07-12 08:48:00,
2013-07-12 04:54:00,75.3,74.7,29.85,South,182,0.0,1.0,98,0.00,,,0.50,VWS V14.00,2013-07-12 08:54:00,
2013-07-12 04:59:00,75.4,74.8,29.85,South,182,0.0,1.0,98,0.00,,,0.50,VWS V14.00,2013-07-12 08:59:00,
2013-07-12 05:04:00,75.5,75.2,29.85,South,188,2.0,2.0,99,0.00,,,0.50,VWS V14.00,2013-07-12 09:04:00,
2013-07-12 05:09:00,75.8,75.5,29.85,South,188,0.0,2.0,99,0.00,,,0.50,VWS V14.00,2013-07-12 09:09:00,
2013-07-12 05:14:00,76.0,75.7,29.86,WSW,256,0.0,2.0,99,0.02,,,0.52,VWS V14.00,2013-07-12 09:14:00,
2013-07-12 05:19:00,76.2,75.9,29.85,SSW,200,0.0,3.0,99,0.06,,,0.56,VWS V14.00,2013-07-12 09:19:00,
2013-07-12 05:25:00,76.3,76.0,29.85,SSW,200,0.0,0.0,99,0.08,,,0.58,VWS V14.00,2013-07-12 09:25:00,
2013-07-12 05:30:00,76.3,76.0,29.85,SSW,200,0.0,0.0,99,0.08,,,0.58,VWS V14.00,2013-07-12 09:30:00,
2013-07-12 05:35:00,76.2,75.9,29.86,SSW,199,0.0,0.0,99,0.08,,,0.58,VWS V14.00,2013-07-12 09:35:00,
2013-07-12 05:40:00,76.2,75.9,29.86,SSW,199,0.0,1.0,99,0.08,,,0.58,VWS V14.00,2013-07-12 09:40:00,
2013-07-12 05:45:00,76.2,75.9,29.86,SSW,200,0.0,1.0,99,0.09,,,0.59,VWS V14.00,2013-07-12 09:45:00,
2013-07-12 05:50:00,76.3,76.0,29.86,SSW,200,0.0,1.0,99,0.10,,,0.60,VWS V14.00,2013-07-12 09:50:00,
2013-07-12 05:56:00,76.4,76.1,29.86,SSW,199,0.0,0.0,99,0.10,,,0.60,VWS V14.00,2013-07-12 09:56:00,
2013-07-12 06:01:00,76.4,76.1,29.86,SSW,199,0.0,0.0,99,0.10,,,0.60,VWS V14.00,2013-07-12 10:01:00,
2013-07-12 06:06:00,76.4,76.1,29.86,SSW,200,0.0,1.0,99,0.10,,,0.60,VWS V14.00,2013-07-12 10:06:00,
2013-07-12 06:11:00,76.4,76.1,29.86,SSW,200,0.0,1.0,99,0.10,,,0.60,VWS V14.00,2013-07-12 10:11:00,
2013-07-12 06:16:00,76.5,76.2,29.86,SSW,199,0.0,0.0,99,0.09,,,0.60,VWS V14.00,2013-07-12 10:16:00,
2013-07-12 06:21:00,76.4,76.1,29.87,SSW,200,0.0,0.0,99,0.03,,,0.60,VWS V14.00,2013-07-12 10:21:00,
2013-07-12 06:26:00,76.5,76.2,29.87,SSW,200,0.0,1.0,99,0.03,,,0.60,VWS V14.00,2013-07-12 10:26:00,
2013-07-12 06:32:00,76.4,76.1,29.87,SSW,200,0.0,0.0,99,0.02,,,0.60,VWS V14.00,2013-07-12 10:32:00,
2013-07-12 06:37:00,76.3,76.0,29.87,SSW,199,0.0,1.0,99,0.02,,,0.60,VWS V14.00,2013-07-12 10:37:00,
2013-07-12 06:42:00,76.3,76.0,29.87,SSW,199,1.0,1.0,99,0.06,,,0.64,VWS V14.00,2013-07-12 10:42:00,
2013-07-12 06:47:00,76.3,76.0,29.86,SSW,200,0.0,1.0,99,0.08,,,0.66,VWS V14.00,2013-07-12 10:47:00,
2013-07-12 06:52:00,76.1,75.8,29.86,SSW,199,0.0,0.0,99,0.06,,,0.66,VWS V14.00,2013-07-12 10:52:00,
2013-07-12 06:57:00,75.7,75.1,29.87,SSW,200,0.0,0.0,98,0.06,,,0.66,VWS V14.00,2013-07-12 10:57:00,
2013-07-12 07:02:00,75.3,74.7,29.87,SSW,199,0.0,0.0,98,0.06,,,0.66,VWS V14.00,2013-07-12 11:02:00,
2013-07-12 07:07:00,75.1,74.5,29.87,SSW,199,0.0,0.0,98,0.06,,,0.66,VWS V14.00,2013-07-12 11:07:00,
2013-07-12 07:13:00,75.0,74.4,29.88,SSW,200,0.0,0.0,98,0.06,,,0.66,VWS V14.00,2013-07-12 11:13:00,
2013-07-12 07:18:00,75.0,74.4,29.88,SSW,200,0.0,0.0,98,0.06,,,0.66,VWS V14.00,2013-07-12 11:18:00,
2013-07-12 07:23:00,75.1,74.5,29.87,SSW,200,0.0,0.0,98,0.06,,,0.66,VWS V14.00,2013-07-12 11:23:00,
2013-07-12 07:28:00,75.1,74.8,29.87,SSW,200,0.0,0.0,99,0.06,,,0.66,VWS V14.00,2013-07-12 11:28:00,
2013-07-12 07:33:00,75.5,75.2,29.87,SSW,200,0.0,0.0,99,0.06,,,0.66,VWS V14.00,2013-07-12 11:33:00,
2013-07-12 07:39:00,75.7,75.4,29.87,SSW,199,0.0,0.0,99,0.06,,,0.66,VWS V14.00,2013-07-12 11:39:00,
2013-07-12 07:44:00,75.9,75.6,29.87,SSW,200,1.0,1.0,99,0.03,,,0.66,VWS V14.00,2013-07-12 11:44:00,
2013-07-12 07:49:00,76.2,75.9,29.87,SSW,200,0.0,2.0,99,0.03,,,0.66,VWS V14.00,2013-07-12 11:49:00,
2013-07-12 07:54:00,76.4,76.1,29.87,SSW,199,0.0,0.0,99,0.00,,,0.66,VWS V14.00,2013-07-12 11:54:00,
2013-07-12 07:59:00,76.5,76.2,29.88,SSW,199,0.0,0.0,99,0.00,,,0.66,VWS V14.00,2013-07-12 11:59:00,
2013-07-12 08:04:00,76.4,76.1,29.88,SSW,200,0.0,0.0,99,0.00,,,0.66,VWS V14.00,2013-07-12 12:04:00,
2013-07-12 08:10:00,76.5,76.2,29.87,SSW,199,0.0,0.0,99,0.00,,,0.66,VWS V14.00,2013-07-12 12:10:00,
2013-07-12 08:15:00,76.6,76.3,29.87,SSW,199,0.0,0.0,99,0.00,,,0.66,VWS V14.00,2013-07-12 12:15:00,
2013-07-12 08:20:00,76.5,76.2,29.88,SSW,200,0.0,0.0,99,0.00,,,0.66,VWS V14.00,2013-07-12 12:20:00,
2013-07-12 08:25:00,76.4,76.1,29.88,SSW,200,0.0,1.0,99,0.00,,,0.66,VWS V14.00,2013-07-12 12:25:00,
2013-07-12 08:30:00,76.2,75.9,29.88,SSW,199,0.0,1.0,99,0.00,,,0.66,VWS V14.00,2013-07-12 12:30:00,
2013-07-12 08:35:00,75.9,75.6,29.88,SSW,200,0.0,0.0,99,0.00,,,0.66,VWS V14.00,2013-07-12 12:35:00,
2013-07-12 08:41:00,75.9,75.6,29.88,SSW,200,1.0,1.0,99,0.00,,,0.66,VWS V14.00,2013-07-12 12:41:00,
2013-07-12 08:46:00,75.8,75.5,29.88,SSW,200,0.0,1.0,99,0.00,,,0.66,VWS V14.00,2013-07-12 12:46:00,
2013-07-12 08:51:00,75.8,75.5,29.88,SSW,200,0.0,1.0,99,0.00,,,0.66,VWS V14.00,2013-07-12 12:51:00,
2013-07-12 08:56:00,75.9,75.6,29.88,SSW,199,0.0,1.0,99,0.00,,,0.66,VWS V14.00,2013-07-12 12:56:00,
2013-07-12 09:01:00,75.9,75.6,29.88,SSW,199,0.0,1.0,99,0.01,,,0.67,VWS V14.00,2013-07-12 13:01:00,
2013-07-12 09:06:00,76.0,75.7,29.88,SSW,199,0.0,0.0,99,0.01,,,0.67,VWS V14.00,2013-07-12 13:06:00,
2013-07-12 09:11:00,76.0,75.7,29.88,SSW,200,0.0,0.0,99,0.01,,,0.67,VWS V14.00,2013-07-12 13:11:00,
2013-07-12 09:16:00,76.2,75.9,29.89,SSW,199,0.0,0.0,99,0.01,,,0.67,VWS V14.00,2013-07-12 13:16:00,
2013-07-12 09:21:00,76.3,76.0,29.89,SSW,199,0.0,0.0,99,0.02,,,0.68,VWS V14.00,2013-07-12 13:21:00,
2013-07-12 09:27:00,76.4,76.1,29.89,SSW,199,0.0,1.0,99,0.02,,,0.68,VWS V14.00,2013-07-12 13:27:00,
2013-07-12 09:32:00,76.4,76.1,29.89,SSW,200,0.0,0.0,99,0.03,,,0.69,VWS V14.00,2013-07-12 13:32:00,
2013-07-12 09:37:00,76.5,76.2,29.89,SSW,199,0.0,0.0,99,0.03,,,0.69,VWS V14.00,2013-07-12 13:37:00,
2013-07-12 09:42:00,76.5,76.2,29.89,SSW,199,0.0,0.0,99,0.03,,,0.69,VWS V14.00,2013-07-12 13:42:00,
2013-07-12 09:47:00,76.7,76.4,29.89,SSW,200,0.0,0.0,99,0.03,,,0.69,VWS V14.00,2013-07-12 13:47:00,
2013-07-12 09:52:00,76.9,76.6,29.89,SSW,200,0.0,0.0,99,0.03,,,0.69,VWS V14.00,2013-07-12 13:52:00,
2013-07-12 09:58:00,76.9,76.6,29.89,SSW,200,0.0,0.0,99,0.03,,,0.69,VWS V14.00,2013-07-12 13:58:00,
2013-07-12 10:03:00,77.1,76.8,29.89,SSW,200,0.0,1.0,99,0.02,,,0.69,VWS V14.00,2013-07-12 14:03:00,
2013-07-12 10:08:00,77.3,77.0,29.89,South,177,0.0,2.0,99,0.09,,,0.76,VWS V14.00,2013-07-12 14:08:00,
2013-07-12 10:13:00,77.3,77.0,29.89,South,176,0.0,1.0,99,0.10,,,0.77,VWS V14.00,2013-07-12 14:13:00,
2013-07-12 10:18:00,77.2,76.9,29.88,NE,51,3.0,4.0,99,0.10,,,0.77,VWS V14.00,2013-07-12 14:18:00,
2013-07-12 10:24:00,77.2,76.9,29.88,ENE,65,0.0,2.0,99,0.09,,,0.77,VWS V14.00,2013-07-12 14:24:00,
2013-07-12 10:29:00,76.9,76.6,29.90,NW,306,4.0,5.0,99,0.17,,,0.85,VWS V14.00,2013-07-12 14:29:00,
2013-07-12 10:34:00,76.0,75.4,29.90,NE,45,2.0,3.0,98,0.49,,,1.18,VWS V14.00,2013-07-12 14:34:00,
2013-07-12 10:39:00,75.3,74.7,29.90,NNE,33,2.0,4.0,98,0.60,,,1.29,VWS V14.00,2013-07-12 14:39:00,
2013-07-12 10:44:00,74.8,74.2,29.90,NE,50,0.0,3.0,98,0.63,,,1.32,VWS V14.00,2013-07-12 14:44:00,
2013-07-12 10:49:00,74.7,74.1,29.90,NE,50,0.0,3.0,98,0.63,,,1.32,VWS V14.00,2013-07-12 14:49:00,
2013-07-12 10:54:00,74.6,74.3,29.91,NE,49,0.0,2.0,99,0.64,,,1.33,VWS V14.00,2013-07-12 14:54:00,
2013-07-12 10:59:00,74.6,74.3,29.90,NE,54,1.0,3.0,99,0.70,,,1.39,VWS V14.00,2013-07-12 14:59:00,
2013-07-12 11:05:00,74.7,74.4,29.90,NE,54,1.0,2.0,99,0.71,,,1.40,VWS V14.00,2013-07-12 15:05:00,
2013-07-12 11:10:00,75.0,74.7,29.90,NE,53,0.0,2.0,99,0.71,,,1.40,VWS V14.00,2013-07-12 15:10:00,
2013-07-12 11:15:00,75.0,74.7,29.89,NE,55,0.0,2.0,99,0.63,,,1.40,VWS V14.00,2013-07-12 15:15:00,
2013-07-12 11:20:00,75.2,74.9,29.89,ENE,62,1.0,4.0,99,0.63,,,1.40,VWS V14.00,2013-07-12 15:20:00,
2013-07-12 11:21:00,75.2,74.9,29.89,ENE,62,0.0,2.0,99,0.63,,,1.40,VWS V14.00,2013-07-12 15:21:00,
2013-07-12 11:25:00,75.2,74.9,29.89,ENE,62,0.0,2.0,99,0.63,,,1.40,VWS V14.00,2013-07-12 15:25:00,
2013-07-12 11:30:00,75.2,74.9,29.89,ENE,62,0.0,2.0,99,0.63,,,1.40,VWS V14.00,2013-07-12 15:30:00,
2013-07-12 11:50:00,73.9,73.6,29.90,NNE,33,0.0,2.0,99,1.06,,,1.83,VWS V14.00,2013-07-12 15:50:00,
2013-07-12 11:55:00,73.9,73.6,29.90,NNE,33,0.0,1.0,99,0.52,,,1.84,VWS V14.00,2013-07-12 15:55:00,
2013-07-12 12:00:00,74.0,73.7,29.90,NE,49,0.0,3.0,99,0.53,,,1.85,VWS V14.00,2013-07-12 16:00:00,
2013-07-12 12:05:00,73.7,73.4,29.90,NE,49,1.0,2.0,99,0.46,,,1.86,VWS V14.00,2013-07-12 16:05:00,
2013-07-12 12:10:00,73.5,73.2,29.91,NE,49,0.0,2.0,99,0.46,,,1.86,VWS V14.00,2013-07-12 16:10:00,
2013-07-12 12:16:00,73.3,73.0,29.91,NE,49,0.0,2.0,99,0.47,,,1.87,VWS V14.00,2013-07-12 16:16:00,
2013-07-12 12:22:00,73.3,73.0,29.93,ESE,103,0.0,1.0,99,0.47,,,1.87,VWS V14.00,2013-07-12 16:22:00,
2013-07-12 12:27:00,73.3,73.0,29.93,ESE,104,0.0,2.0,99,0.49,,,1.89,VWS V14.00,2013-07-12 16:27:00,
2013-07-12 12:32:00,73.3,73.0,29.93,ESE,103,0.0,0.0,99,0.06,,,1.90,VWS V14.00,2013-07-12 16:32:00,
2013-07-12 12:37:00,73.2,72.9,29.93,ESE,104,0.0,0.0,99,0.07,,,1.91,VWS V14.00,2013-07-12 16:37:00,
2013-07-12 12:43:00,73.2,72.9,29.93,ESE,104,0.0,1.0,99,0.09,,,1.93,VWS V14.00,2013-07-12 16:43:00,
2013-07-12 12:48:00,73.2,72.9,29.92,ESE,104,0.0,1.0,99,0.10,,,1.94,VWS V14.00,2013-07-12 16:48:00,
2013-07-12 12:53:00,73.2,72.9,29.91,ESE,103,0.0,0.0,99,0.11,,,1.95,VWS V14.00,2013-07-12 16:53:00,
2013-07-12 12:58:00,73.1,72.8,29.91,ESE,104,0.0,0.0,99,0.12,,,1.96,VWS V14.00,2013-07-12 16:58:00,
2013-07-12 13:03:00,73.1,72.8,29.92,ESE,104,0.0,0.0,99,0.12,,,1.97,VWS V14.00,2013-07-12 17:03:00,
2013-07-12 13:08:00,73.2,72.9,29.92,ESE,104,0.0,0.0,99,0.12,,,1.97,VWS V14.00,2013-07-12 17:08:00,
2013-07-12 13:13:00,73.1,72.8,29.92,ESE,103,0.0,0.0,99,0.12,,,1.98,VWS V14.00,2013-07-12 17:13:00,
2013-07-12 13:18:00,73.1,72.8,29.92,ESE,104,0.0,0.0,99,0.14,,,2.00,VWS V14.00,2013-07-12 17:18:00,
2013-07-12 13:24:00,73.2,72.9,29.91,ESE,104,0.0,0.0,99,0.14,,,2.01,VWS V14.00,2013-07-12 17:24:00,
2013-07-12 13:29:00,73.2,72.9,29.91,ESE,103,0.0,0.0,99,0.16,,,2.03,VWS V14.00,2013-07-12 17:29:00,
2013-07-12 13:34:00,73.2,72.9,29.91,ESE,104,0.0,0.0,99,0.14,,,2.04,VWS V14.00,2013-07-12 17:34:00,
2013-07-12 13:39:00,73.2,72.9,29.91,ESE,103,0.0,0.0,99,0.16,,,2.06,VWS V14.00,2013-07-12 17:39:00,
2013-07-12 13:44:00,73.2,72.9,29.91,ESE,103,0.0,0.0,99,0.15,,,2.07,VWS V14.00,2013-07-12 17:44:00,
2013-07-12 13:50:00,73.1,72.8,29.92,ESE,103,0.0,0.0,99,0.16,,,2.08,VWS V14.00,2013-07-12 17:50:00,
2013-07-12 13:55:00,73.2,72.9,29.92,ESE,104,0.0,0.0,99,0.14,,,2.09,VWS V14.00,2013-07-12 17:55:00,
2013-07-12 14:00:00,73.4,73.1,29.91,ESE,104,0.0,0.0,99,0.15,,,2.10,VWS V14.00,2013-07-12 18:00:00,
2013-07-12 14:05:00,73.4,73.1,29.91,ESE,103,0.0,0.0,99,0.14,,,2.11,VWS V14.00,2013-07-12 18:05:00,
2013-07-12 14:10:00,73.4,73.1,29.91,ESE,104,0.0,0.0,99,0.14,,,2.11,VWS V14.00,2013-07-12 18:10:00,
2013-07-12 14:15:00,73.5,73.2,29.91,ESE,103,0.0,0.0,99,0.13,,,2.11,VWS V14.00,2013-07-12 18:15:00,
2013-07-12 14:21:00,73.6,73.3,29.91,ESE,104,0.0,0.0,99,0.13,,,2.11,VWS V14.00,2013-07-12 18:21:00,
2013-07-12 14:26:00,73.7,73.4,29.91,ESE,104,0.0,2.0,99,0.10,,,2.11,VWS V14.00,2013-07-12 18:26:00,
2013-07-12 14:32:00,73.9,73.6,29.91,ESE,103,0.0,0.0,99,0.07,,,2.11,VWS V14.00,2013-07-12 18:32:00,
2013-07-12 14:37:00,74.1,73.8,29.91,ESE,103,0.0,1.0,99,0.07,,,2.11,VWS V14.00,2013-07-12 18:37:00,
2013-07-12 14:43:00,74.1,73.8,29.91,ESE,103,0.0,0.0,99,0.04,,,2.11,VWS V14.00,2013-07-12 18:43:00,
2013-07-12 14:48:00,74.0,73.7,29.90,ESE,104,0.0,1.0,99,0.04,,,2.11,VWS V14.00,2013-07-12 18:48:00,
2013-07-12 14:53:00,74.2,73.9,29.90,ESE,104,0.0,1.0,99,0.02,,,2.11,VWS V14.00,2013-07-12 18:53:00,
2013-07-12 14:58:00,74.3,74.0,29.90,ESE,104,0.0,1.0,99,0.02,,,2.11,VWS V14.00,2013-07-12 18:58:00,
2013-07-12 15:03:00,74.4,74.1,29.90,ESE,103,0.0,1.0,99,0.01,,,2.11,VWS V14.00,2013-07-12 19:03:00,
2013-07-12 15:08:00,74.2,73.9,29.90,ESE,104,0.0,1.0,99,0.01,,,2.11,VWS V14.00,2013-07-12 19:08:00,
2013-07-12 15:14:00,74.3,74.0,29.90,ESE,103,0.0,0.0,99,0.00,,,2.11,VWS V14.00,2013-07-12 19:14:00,
2013-07-12 15:19:00,74.4,74.1,29.90,ESE,104,0.0,0.0,99,0.00,,,2.11,VWS V14.00,2013-07-12 19:19:00,
2013-07-12 15:25:00,74.6,74.3,29.90,ESE,104,0.0,1.0,99,0.00,,,2.11,VWS V14.00,2013-07-12 19:25:00,
2013-07-12 15:30:00,74.9,74.6,29.90,ESE,104,0.0,1.0,99,0.00,,,2.11,VWS V14.00,2013-07-12 19:30:00,
2013-07-12 15:35:00,75.0,74.7,29.90,ESE,103,0.0,2.0,99,0.00,,,2.11,VWS V14.00,2013-07-12 19:35:00,
2013-07-12 15:40:00,74.8,74.2,29.90,ESE,104,0.0,2.0,98,0.00,,,2.11,VWS V14.00,2013-07-12 19:40:00,
2013-07-12 15:45:00,75.0,74.7,29.90,ESE,104,0.0,0.0,99,0.00,,,2.11,VWS V14.00,2013-07-12 19:45:00,
2013-07-12 15:50:00,75.3,75.0,29.90,ESE,104,0.0,1.0,99,0.00,,,2.11,VWS V14.00,2013-07-12 19:50:00,
2013-07-12 15:55:00,75.2,74.6,29.90,ESE,104,0.0,2.0,98,0.00,,,2.11,VWS V14.00,2013-07-12 19:55:00,
2013-07-12 16:00:00,75.4,74.8,29.90,ESE,104,0.0,2.0,98,0.00,,,2.11,VWS V14.00,2013-07-12 20:00:00,
2013-07-12 16:06:00,75.7,75.1,29.89,ESE,106,0.0,2.0,98,0.00,,,2.11,VWS V14.00,2013-07-12 20:06:00,
2013-07-12 16:11:00,75.5,74.6,29.89,ESE,107,0.0,2.0,97,0.00,,,2.11,VWS V14.00,2013-07-12 20:11:00,
2013-07-12 16:16:00,76.0,75.4,29.89,ESE,107,0.0,1.0,98,0.00,,,2.11,VWS V14.00,2013-07-12 20:16:00,
2013-07-12 16:21:00,75.9,75.0,29.89,ESE,107,0.0,0.0,97,0.00,,,2.11,VWS V14.00,2013-07-12 20:21:00,
2013-07-12 16:26:00,76.1,74.9,29.89,ESE,107,0.0,1.0,96,0.00,,,2.11,VWS V14.00,2013-07-12 20:26:00,
2013-07-12 16:32:00,76.2,75.0,29.89,ESE,107,2.0,2.0,96,0.00,,,2.11,VWS V14.00,2013-07-12 20:32:00,
2013-07-12 16:37:00,76.1,74.6,29.89,ESE,106,0.0,2.0,95,0.00,,,2.11,VWS V14.00,2013-07-12 20:37:00,
2013-07-12 16:42:00,76.1,74.6,29.90,ESE,107,0.0,0.0,95,0.00,,,2.11,VWS V14.00,2013-07-12 20:42:00,
2013-07-12 16:47:00,76.2,74.7,29.90,ESE,107,1.0,2.0,95,0.00,,,2.11,VWS V14.00,2013-07-12 20:47:00,
2013-07-12 16:52:00,76.2,74.3,29.90,ESE,107,0.0,1.0,94,0.00,,,2.11,VWS V14.00,2013-07-12 20:52:00,
2013-07-12 16:57:00,76.3,74.8,29.90,ESE,106,1.0,2.0,95,0.00,,,2.11,VWS V14.00,2013-07-12 20:57:00,
2013-07-12 17:19:00,76.6,75.1,29.90,ENE,74,0.0,0.0,95,0.00,,,2.11,VWS V14.00,2013-07-12 21:19:00,
2013-07-12 17:24:00,76.5,74.7,29.91,ENE,74,0.0,2.0,94,0.00,,,2.11,VWS V14.00,2013-07-12 21:24:00,
2013-07-12 17:30:00,76.6,74.8,29.90,ENE,74,0.0,2.0,94,0.00,,,2.11,VWS V14.00,2013-07-12 21:30:00,
2013-07-12 17:35:00,76.7,74.8,29.90,ENE,74,0.0,1.0,94,0.00,,,2.11,VWS V14.00,2013-07-12 21:35:00,
2013-07-12 17:40:00,76.8,75.3,29.90,ENE,74,0.0,1.0,95,0.00,,,2.11,VWS V14.00,2013-07-12 21:40:00,
2013-07-12 17:45:00,76.7,74.5,29.90,ENE,74,1.0,1.0,93,0.00,,,2.11,VWS V14.00,2013-07-12 21:45:00,
2013-07-12 17:50:00,76.7,74.8,29.91,ENE,74,1.0,2.0,94,0.00,,,2.11,VWS V14.00,2013-07-12 21:50:00,
2013-07-12 17:55:00,76.7,74.5,29.91,ENE,74,0.0,0.0,93,0.00,,,2.11,VWS V14.00,2013-07-12 21:55:00,
2013-07-12 18:00:00,76.8,74.9,29.90,ENE,74,0.0,1.0,94,0.00,,,2.11,VWS V14.00,2013-07-12 22:00:00,
2013-07-12 18:05:00,76.8,74.9,29.90,ENE,74,0.0,0.0,94,0.00,,,2.11,VWS V14.00,2013-07-12 22:05:00,
2013-07-12 18:10:00,76.9,75.1,29.90,ENE,74,0.0,0.0,94,0.00,,,2.11,VWS V14.00,2013-07-12 22:10:00,
2013-07-12 18:16:00,76.9,75.1,29.90,ENE,74,0.0,0.0,94,0.00,,,2.11,VWS V14.00,2013-07-12 22:16:00,
2013-07-12 18:21:00,76.9,75.1,29.90,ENE,74,0.0,1.0,94,0.00,,,2.11,VWS V14.00,2013-07-12 22:21:00,
2013-07-12 18:26:00,76.9,75.1,29.89,ENE,74,1.0,2.0,94,0.00,,,2.11,VWS V14.00,2013-07-12 22:26:00,
2013-07-12 18:32:00,76.8,74.6,29.89,ENE,74,0.0,1.0,93,0.00,,,2.11,VWS V14.00,2013-07-12 22:32:00,
2013-07-12 18:38:00,77.0,75.1,29.89,ENE,74,0.0,2.0,94,0.00,,,2.11,VWS V14.00,2013-07-12 22:38:00,
2013-07-12 18:43:00,77.0,75.5,29.90,ENE,74,0.0,0.0,95,0.00,,,2.11,VWS V14.00,2013-07-12 22:43:00,
2013-07-12 18:48:00,77.1,75.6,29.90,ENE,75,0.0,1.0,95,0.00,,,2.11,VWS V14.00,2013-07-12 22:48:00,
2013-07-12 18:53:00,77.1,75.6,29.89,ENE,75,0.0,0.0,95,0.00,,,2.11,VWS V14.00,2013-07-12 22:53:00,
2013-07-12 18:58:00,77.1,75.6,29.89,ENE,75,0.0,0.0,95,0.00,,,2.11,VWS V14.00,2013-07-12 22:58:00,
2013-07-12 19:03:00,77.1,75.6,29.89,ENE,75,0.0,0.0,95,0.00,,,2.11,VWS V14.00,2013-07-12 23:03:00,
2013-07-12 19:08:00,77.0,75.5,29.89,ENE,75,0.0,0.0,95,0.00,,,2.11,VWS V14.00,2013-07-12 23:08:00,
2013-07-12 19:14:00,77.0,75.5,29.90,ENE,75,0.0,0.0,95,0.00,,,2.11,VWS V14.00,2013-07-12 23:14:00,
2013-07-12 19:19:00,76.9,75.4,29.90,ENE,75,0.0,0.0,95,0.00,,,2.11,VWS V14.00,2013-07-12 23:19:00,
2013-07-12 19:24:00,77.0,75.5,29.90,ENE,74,0.0,0.0,95,0.00,,,2.11,VWS V14.00,2013-07-12 23:24:00,
2013-07-12 19:29:00,77.1,75.6,29.90,ENE,75,0.0,0.0,95,0.00,,,2.11,VWS V14.00,2013-07-12 23:29:00,
2013-07-12 19:34:00,77.1,75.6,29.90,ENE,75,0.0,0.0,95,0.00,,,2.11,VWS V14.00,2013-07-12 23:34:00,
2013-07-12 19:39:00,77.1,75.6,29.91,ENE,75,0.0,0.0,95,0.00,,,2.11,VWS V14.00,2013-07-12 23:39:00,
2013-07-12 19:44:00,77.1,75.6,29.91,ENE,75,0.0,0.0,95,0.00,,,2.11,VWS V14.00,2013-07-12 23:44:00,
2013-07-12 19:50:00,77.0,75.5,29.91,ENE,75,0.0,0.0,95,0.00,,,2.11,VWS V14.00,2013-07-12 23:50:00,
2013-07-12 19:55:00,77.0,75.8,29.91,ENE,75,0.0,0.0,96,0.00,,,2.11,VWS V14.00,2013-07-12 23:55:00,
2013-07-12 20:00:00,77.0,75.8,29.91,ENE,75,0.0,0.0,96,0.00,,,2.11,VWS V14.00,2013-07-13 00:00:00,
2013-07-12 20:05:00,76.9,75.4,29.91,ENE,75,0.0,1.0,95,0.00,,,2.11,VWS V14.00,2013-07-13 00:05:00,
2013-07-12 20:11:00,76.7,75.5,29.91,ENE,75,0.0,1.0,96,0.00,,,2.11,VWS V14.00,2013-07-13 00:11:00,
2013-07-12 20:16:00,76.6,75.4,29.92,ENE,75,0.0,0.0,96,0.00,,,2.11,VWS V14.00,2013-07-13 00:16:00,
2013-07-12 20:21:00,76.5,75.3,29.92,ENE,75,0.0,0.0,96,0.00,,,2.11,VWS V14.00,2013-07-13 00:21:00,
2013-07-12 20:26:00,76.3,75.1,29.92,ENE,75,0.0,0.0,96,0.00,,,2.11,VWS V14.00,2013-07-13 00:26:00,
2013-07-12 20:31:00,76.3,75.1,29.92,ENE,75,0.0,0.0,96,0.00,,,2.11,VWS V14.00,2013-07-13 00:31:00,
2013-07-12 20:36:00,76.3,75.1,29.92,ENE,75,0.0,0.0,96,0.00,,,2.11,VWS V14.00,2013-07-13 00:36:00,
2013-07-12 20:42:00,76.3,75.4,29.92,ENE,75,0.0,0.0,97,0.00,,,2.11,VWS V14.00,2013-07-13 00:42:00,
2013-07-12 20:47:00,76.2,75.3,29.92,ENE,75,0.0,0.0,97,0.00,,,2.11,VWS V14.00,2013-07-13 00:47:00,
2013-07-12 20:52:00,76.2,75.3,29.92,ENE,75,0.0,0.0,97,0.00,,,2.11,VWS V14.00,2013-07-13 00:52:00,
2013-07-12 20:58:00,76.1,75.2,29.92,ENE,75,0.0,0.0,97,0.00,,,2.11,VWS V14.00,2013-07-13 00:58:00,
2013-07-12 21:03:00,76.0,75.1,29.93,ENE,75,0.0,0.0,97,0.00,,,2.11,VWS V14.00,2013-07-13 01:03:00,
2013-07-12 21:08:00,76.0,75.1,29.93,ENE,75,0.0,0.0,97,0.00,,,2.11,VWS V14.00,2013-07-13 01:08:00,
2013-07-12 21:13:00,76.0,75.1,29.93,ENE,75,0.0,0.0,97,0.00,,,2.11,VWS V14.00,2013-07-13 01:13:00,
2013-07-12 21:18:00,75.9,75.3,29.93,ENE,75,0.0,0.0,98,0.00,,,2.11,VWS V14.00,2013-07-13 01:18:00,
2013-07-12 21:23:00,75.9,75.3,29.93,ENE,75,0.0,0.0,98,0.00,,,2.11,VWS V14.00,2013-07-13 01:23:00,
2013-07-12 21:29:00,75.9,75.3,29.94,ENE,75,0.0,0.0,98,0.00,,,2.11,VWS V14.00,2013-07-13 01:29:00,
2013-07-12 21:34:00,75.8,75.2,29.94,ENE,75,0.0,0.0,98,0.00,,,2.11,VWS V14.00,2013-07-13 01:34:00,
2013-07-12 21:39:00,75.7,75.1,29.93,ENE,75,0.0,0.0,98,0.00,,,2.11,VWS V14.00,2013-07-13 01:39:00,
2013-07-12 21:44:00,75.7,75.1,29.93,ENE,75,0.0,0.0,98,0.00,,,2.11,VWS V14.00,2013-07-13 01:44:00,
2013-07-12 21:49:00,75.6,75.0,29.93,ENE,75,0.0,0.0,98,0.00,,,2.11,VWS V14.00,2013-07-13 01:49:00,
2013-07-12 21:54:00,75.5,74.9,29.94,ENE,75,0.0,0.0,98,0.00,,,2.11,VWS V14.00,2013-07-13 01:54:00,
2013-07-12 21:59:00,75.5,74.9,29.94,ENE,75,0.0,0.0,98,0.00,,,2.11,VWS V14.00,2013-07-13 01:59:00,
2013-07-12 22:04:00,75.4,74.8,29.94,ENE,75,0.0,0.0,98,0.00,,,2.11,VWS V14.00,2013-07-13 02:04:00,
2013-07-12 22:10:00,75.4,74.8,29.94,ENE,75,0.0,2.0,98,0.00,,,2.11,VWS V14.00,2013-07-13 02:10:00,
2013-07-12 22:15:00,75.3,74.7,29.95,ENE,75,0.0,0.0,98,0.00,,,2.11,VWS V14.00,2013-07-13 02:15:00,
2013-07-12 22:20:00,75.3,74.7,29.95,ENE,75,0.0,0.0,98,0.00,,,2.11,VWS V14.00,2013-07-13 02:20:00,
2013-07-12 22:25:00,75.2,74.6,29.95,ENE,75,0.0,0.0,98,0.00,,,2.11,VWS V14.00,2013-07-13 02:25:00,
2013-07-12 22:30:00,75.3,74.7,29.95,ENE,75,0.0,0.0,98,0.00,,,2.11,VWS V14.00,2013-07-13 02:30:00,
2013-07-12 22:36:00,75.2,74.6,29.95,ENE,75,0.0,0.0,98,0.00,,,2.11,VWS V14.00,2013-07-13 02:36:00,
2013-07-12 22:41:00,75.2,74.6,29.95,ENE,75,0.0,0.0,98,0.00,,,2.11,VWS V14.00,2013-07-13 02:41:00,
2013-07-12 22:46:00,75.2,74.6,29.95,ENE,75,0.0,0.0,98,0.00,,,2.11,VWS V14.00,2013-07-13 02:46:00,
2013-07-12 22:51:00,75.1,74.5,29.95,ENE,75,0.0,0.0,98,0.00,,,2.11,VWS V14.00,2013-07-13 02:51:00,
2013-07-12 22:56:00,75.2,74.6,29.95,ENE,75,0.0,0.0,98,0.00,,,2.11,VWS V14.00,2013-07-13 02:56:00,
2013-07-12 23:02:00,75.1,74.5,29.95,ENE,75,0.0,0.0,98,0.00,,,2.11,VWS V14.00,2013-07-13 03:02:00,
2013-07-12 23:07:00,75.1,74.5,29.95,ENE,75,0.0,0.0,98,0.00,,,2.11,VWS V14.00,2013-07-13 03:07:00,
2013-07-12 23:12:00,75.1,74.5,29.95,ENE,75,0.0,0.0,98,0.00,,,2.11,VWS V14.00,2013-07-13 03:12:00,
2013-07-12 23:17:00,75.0,74.4,29.95,ENE,75,0.0,0.0,98,0.00,,,2.11,VWS V14.00,2013-07-13 03:17:00,
2013-07-12 23:22:00,75.0,74.4,29.95,ENE,75,0.0,0.0,98,0.00,,,2.11,VWS V14.00,2013-07-13 03:22:00,
2013-07-12 23:27:00,75.0,74.4,29.94,ENE,75,0.0,0.0,98,0.00,,,2.11,VWS V14.00,2013-07-13 03:27:00,
2013-07-12 23:32:00,75.0,74.4,29.94,ENE,75,0.0,1.0,98,0.00,,,2.11,VWS V14.00,2013-07-13 03:32:00,
2013-07-12 23:37:00,74.9,74.3,29.95,ENE,75,0.0,1.0,98,0.00,,,2.11,VWS V14.00,2013-07-13 03:37:00,
2013-07-12 23:42:00,74.9,74.3,29.94,ENE,75,0.0,0.0,98,0.00,,,2.11,VWS V14.00,2013-07-13 03:42:00,
2013-07-12 23:47:00,74.9,74.3,29.95,ENE,75,0.0,0.0,98,0.00,,,2.11,VWS V14.00,2013-07-13 03:47:00,
2013-07-12 23:52:00,74.9,74.3,29.95,ENE,75,0.0,0.0,98,0.00,,,2.11,VWS V14.00,2013-07-13 03:52:00,
2013-07-12 23:57:00,74.9,74.6,29.95,ENE,75,0.0,0.0,99,0.00,,,2.11,VWS V14.00,2013-07-13 03:57:00,